Browning, MT (59417)

4:31 PM MDT on August 01, 2014 (GMT -0600)
De La Salle Blackfeet School (KMTBROWN1) Elev 4367 ft | 48.56 °N, 113.02 °W | Change Station

Current weather conditions updated 3 seconds ago

Clear
Clear
80.3 °F
Feels Like 80 °F
N
3.0
Wind Variable Wind from SE
Gusts 11.0 mph

Tomorrow is forecast to be nearly the same temperature as today. Isolated thunderstorms.

Today
High -- | Low -- °F
--% Chance of Precip.
Yesterday
High -- | Low -- °F
Precip. -- in
6:06 AM 9:09 PM
Waxing Crescent, 30% visible
Pressure 30.09 in
Visibility 10.0 miles
Clouds Clear
Heat Index 80 °F
Dew Point 54 °F
Humidity 40%
Rainfall 0.00 in
Snow Depth Not available.
UV 8 out of 12
Pollen 2.20 out of 12
Air Quality Not available.
Flu Activity Not available.
METAR KCTB 012156Z AUTO VRB05KT 10SM CLR 29/11 A3018 RMK AO2 SLP187 T02940111

More Conditions Fewer Conditions

Pressure 30.09 in
Visibility 10.0 miles
Clouds Clear
Heat Index 80 °F
Dew Point 54 °F
Humidity 40%
Rainfall 0.00 in
Snow Depth Not available.
UV 8 out of 12
Pollen 2.20 out of 12
Air Quality Not available.
Flu Activity Not available.
METAR KCTB 012156Z AUTO VRB05KT 10SM CLR 29/11 A3018 RMK AO2 SLP187 T02940111

More Conditions Fewer Conditions

10-Day Weather Forecast

Almanac

Astronomy

Aug. 01, 2014 Rise Set
Actual Time 6:06 AM MDT 9:09 PM MDT
Civil Twilight 5:29 AM MDT 9:45 PM MDT
Nautical Twilight 4:41 AM MDT 10:33 PM MDT
Astronomical Twilight 3:41 AM MDT 11:32 PM MDT
Moon 12:05 PM MDT 11:22 PM MDT
Length of Visible Light 16h 16m
Length of Day
15h 02m
Tomorrow will be 2m 48s shorter.
Waxing Crescent, 30% of the Moon is Illuminated
Today
Waxing Crescent
Aug 3
First Quarter
Aug 10
Full
Aug 17
Last Quarter
Aug 25
New

Today's Extremes

State Highs State Lows

Community

WunderPhotos

Upload Photos

1,739,735 photos uploaded!

Nearby

Snow Depth

Station Depth Elevation
Badger Pass 0 in 6900 ft
Waldron 0 in 5600 ft
Emery Creek 0 in 4350 ft
Spur Park 0 in 8100 ft
Daly Creek 2 in 5780 ft

Earthquake Activity

City Distance Mag. Time & Date
No recent earthquake activity has been reported nearby.
Minimum magnitude displayed is 2.5.

Coastal Water Temperatures

Place Temperature
No Stations Reporting

Nearby Weather Stations

Station Location Temp. Heat Index Dew Point Humidity Wind Precip. Elev Updated Type
De La Salle Blackfeet School, Browning, MT 80.3 °F 80 °F 54 °F 40% SE  at  3.0 mph 0.00 in / hr 4367 ft 4:30 PM MDT Rapid Fire
RAWS BROWNING MT, Browning, MT 81 °F 81 °F 56 °F 43% ENE  at  5 mph 0.00 in / hr 4383 ft 3:21 PM MDT MADIS
HADS SUMMIT RAIN NEAR EAST GLACIER PA MT, Heart Butte, MT 78 °F 76 °F - - North  at  - 0.00 in / hr 5232 ft 3:30 PM MDT MADIS
RAWS DEEP CREEK MT, Heart Butte, MT 74 °F 77 °F 54 °F 50% East  at  8 mph 0.00 in / hr 5339 ft 3:21 PM MDT MADIS

Show More Stations Show Fewer Stations